Pagrindinis puslapis
METAR-TAF:

METAR-TAF

Oro uostai :

Kerteh, Malaizija

platuma: 04-32-15N, ilguma: 103-25-36E, Aukštis: 5 m

Dabartinis oras

Ataskaita buvo paskelbta 43 minutes, ne 15:00 UTC
Ramus vėjas
Temperatūra 25°C
Drėgmė 89%
Slėgis 1011 hPa

METAR: WMKE 171500Z AUTO 00000KT //// // 25/23 Q1011

Laikas: 23:43 (15:43 UTC)

Prognozė

Ataskaita buvo paskelbta 4 valandos ir 43 minutes, ne 11:00 UTC
Prognozė galioja nuo 17 metu 12 UTC su 18 metu 12 UTC
Vėjas 6 kt iš Pietų
Matomumas 10 km arba daugiau
Mažai debesys ne aukštis 1400 ft
Laikinai
nuo 17 metu 23 UTC su 18 metu 03 UTC
Matomumas: 4000 m
migla

TAF: WMKE 171100Z 1712/1812 18006KT 9999 FEW014 TEMPO 1723/1803 4000 HZ

Orai ataskaitas ir orų prognozės (METAR, TAF).

turimą stotys yra geltonos ir raudonos taškus žemėlapyje.

Perkelti pele per norėdami pamatyti stoties vardą.

Tada spustelėkite, norėdami matyti oro stebėjimo ir prognozės.

Norėdami pakeisti žemėlapį: spustelėkite ant žalios mygtukų su juodo kryžiaus žemyn,; žalią mygtuką su brūkšneliu, jei norite nutolinti; arba žalių rodyklių gretimoms žemėlapius.


METAR-TAF: